Time;durP1;ratioP1;P1;durP2;ratioP2;P2;SDS_P1;SDS_P2;PMS_P1;PMS_P2;Temp;Humidity;BMP_temperature;BMP_pressure;BME280_temperature;BME280_humidity;BME280_pressure;Samples;Min_cycle;Max_cycle;Signal;HPM_P1;HPM_P2
2022/07/19 00:02:22;;;;;;;1.00;1.00;;;;;;;;;;5014302;28;20654;-82
2022/07/19 00:04:49;;;;;;;0.90;0.90;;;;;;;;;;5014446;28;20326;-82
2022/07/19 00:07:17;;;;;;;0.82;0.82;;;;;;;;;;5014402;28;20565;-82
2022/07/19 00:09:46;;;;;;;1.20;1.20;;;;;;;;;;5014610;28;20235;-82
2022/07/19 00:12:13;;;;;;;1.42;1.30;;;;;;;;;;5014627;28;20732;-82
2022/07/19 00:14:41;;;;;;;1.70;1.50;;;;;;;;;;5014885;28;20222;-83
2022/07/19 00:17:09;;;;;;;1.33;1.00;;;;;;;;;;5014449;28;20230;-82
2022/07/19 00:19:36;;;;;;;1.20;1.08;;;;;;;;;;5014549;28;20246;-82
2022/07/19 00:22:04;;;;;;;1.00;1.00;;;;;;;;;;5014450;28;20246;-81
2022/07/19 00:24:31;;;;;;;1.45;1.20;;;;;;;;;;5014290;28;20230;-81
2022/07/19 00:27:00;;;;;;;2.60;1.08;;;;;;;;;;5014629;28;20262;-83
2022/07/19 00:29:28;;;;;;;1.35;1.25;;;;;;;;;;5014580;28;20239;-81
2022/07/19 00:31:55;;;;;;;1.20;1.20;;;;;;;;;;5014482;28;20249;-82
2022/07/19 00:34:23;;;;;;;1.23;0.98;;;;;;;;;;5014227;28;20305;-81
2022/07/19 00:36:50;;;;;;;1.05;1.05;;;;;;;;;;5014195;28;20675;-81
2022/07/19 00:39:18;;;;;;;0.93;0.93;;;;;;;;;;5014425;28;20246;-82
2022/07/19 00:41:45;;;;;;;0.88;0.88;;;;;;;;;;5014402;28;20285;-81
2022/07/19 00:44:14;;;;;;;2.42;0.75;;;;;;;;;;5017249;28;20250;-81
2022/07/19 00:46:42;;;;;;;0.90;0.90;;;;;;;;;;5018315;28;20630;-82
2022/07/19 00:49:09;;;;;;;0.77;0.77;;;;;;;;;;5018326;28;20203;-83
2022/07/19 00:51:40;;;;;;;0.70;0.70;;;;;;;;;;5018420;28;20234;-83
2022/07/19 00:54:09;;;;;;;1.13;1.13;;;;;;;;;;5018489;28;20223;-83
2022/07/19 00:56:37;;;;;;;0.93;0.90;;;;;;;;;;5017426;28;20199;-81
2022/07/19 00:59:05;;;;;;;0.93;0.93;;;;;;;;;;5017756;28;20234;-82
2022/07/19 01:01:34;;;;;;;1.10;1.00;;;;;;;;;;5018125;28;20230;-82
2022/07/19 01:04:02;;;;;;;0.85;0.85;;;;;;;;;;5017441;28;20681;-82
2022/07/19 01:06:29;;;;;;;0.90;0.90;;;;;;;;;;5017352;28;20258;-82
2022/07/19 01:08:57;;;;;;;1.23;1.20;;;;;;;;;;5017764;28;20235;-81
2022/07/19 01:11:24;;;;;;;2.78;1.40;;;;;;;;;;5017726;28;20234;-82
2022/07/19 01:13:52;;;;;;;1.13;1.13;;;;;;;;;;5017679;28;20870;-82
2022/07/19 01:16:19;;;;;;;1.10;1.10;;;;;;;;;;5017895;28;20222;-82
2022/07/19 01:18:50;;;;;;;1.25;1.15;;;;;;;;;;5017189;28;20724;-82
2022/07/19 01:21:21;;;;;;;1.52;1.10;;;;;;;;;;5017372;28;20233;-83
2022/07/19 01:23:49;;;;;;;1.08;1.08;;;;;;;;;;5017065;28;20258;-82
2022/07/19 01:26:18;;;;;;;1.20;1.20;;;;;;;;;;5017242;28;20265;-82
2022/07/19 01:28:45;;;;;;;1.45;1.35;;;;;;;;;;5022284;28;20226;-82
2022/07/19 01:31:13;;;;;;;1.00;0.95;;;;;;;;;;5037393;28;20237;-82
2022/07/19 01:33:41;;;;;;;0.98;0.95;;;;;;;;;;5037019;28;20261;-83
2022/07/19 01:36:09;;;;;;;1.13;1.05;;;;;;;;;;5037343;28;20253;-82
2022/07/19 01:38:40;;;;;;;1.50;1.40;;;;;;;;;;5036813;28;20237;-82
2022/07/19 01:41:08;;;;;;;1.33;1.23;;;;;;;;;;5036765;28;20230;-81
2022/07/19 01:43:36;;;;;;;1.42;1.33;;;;;;;;;;5037013;28;20226;-82
2022/07/19 01:46:04;;;;;;;1.40;1.30;;;;;;;;;;5036706;28;20246;-82
2022/07/19 01:48:32;;;;;;;1.48;1.38;;;;;;;;;;5036775;28;20239;-81
2022/07/19 01:50:59;;;;;;;1.10;1.10;;;;;;;;;;5036746;28;20249;-82
2022/07/19 01:53:27;;;;;;;1.05;1.05;;;;;;;;;;5036274;28;20218;-81
2022/07/19 01:55:55;;;;;;;0.90;0.90;;;;;;;;;;5036711;28;20683;-82
2022/07/19 01:58:23;;;;;;;1.42;0.90;;;;;;;;;;5034716;28;20238;-82
2022/07/19 02:00:51;;;;;;;0.80;0.80;;;;;;;;;;5017334;28;20267;-82
2022/07/19 02:03:18;;;;;;;1.38;1.30;;;;;;;;;;5016740;28;20201;-82
2022/07/19 02:05:46;;;;;;;1.00;1.00;;;;;;;;;;5017035;28;20238;-82
2022/07/19 02:08:14;;;;;;;1.35;1.25;;;;;;;;;;5016293;28;20237;-82
2022/07/19 02:10:41;;;;;;;1.60;1.50;;;;;;;;;;5016498;28;20653;-82
2022/07/19 02:13:10;;;;;;;1.02;1.02;;;;;;;;;;5016303;28;20210;-82
2022/07/19 02:15:37;;;;;;;1.50;1.40;;;;;;;;;;5015923;28;20237;-82
2022/07/19 02:18:05;;;;;;;1.40;1.30;;;;;;;;;;5016072;28;20237;-82
2022/07/19 02:20:33;;;;;;;0.90;0.90;;;;;;;;;;5016112;28;20643;-80
2022/07/19 02:23:00;;;;;;;1.20;1.20;;;;;;;;;;5016732;28;20245;-81
2022/07/19 02:25:28;;;;;;;1.75;1.45;;;;;;;;;;5016243;28;20250;-83
2022/07/19 02:27:55;;;;;;;1.30;1.30;;;;;;;;;;5016256;28;20719;-81
2022/07/19 02:30:24;;;;;;;1.60;1.50;;;;;;;;;;5016375;28;20242;-82
2022/07/19 02:32:51;;;;;;;1.33;1.17;;;;;;;;;;5016268;28;20206;-80
2022/07/19 02:35:19;;;;;;;1.70;1.60;;;;;;;;;;5016189;28;20258;-82
2022/07/19 02:37:47;;;;;;;1.75;1.33;;;;;;;;;;5015604;28;20281;-83
2022/07/19 02:40:14;;;;;;;1.20;1.20;;;;;;;;;;5015931;28;20241;-82
2022/07/19 02:42:42;;;;;;;1.35;1.25;;;;;;;;;;5016256;28;20219;-82
2022/07/19 02:45:11;;;;;;;1.40;1.23;;;;;;;;;;5015998;28;20250;-82
2022/07/19 02:47:40;;;;;;;1.30;1.30;;;;;;;;;;5016012;28;20594;-82
2022/07/19 02:50:08;;;;;;;1.10;1.10;;;;;;;;;;5015515;28;20242;-82
2022/07/19 02:52:36;;;;;;;1.50;1.30;;;;;;;;;;5016123;28;20202;-82
2022/07/19 02:55:04;;;;;;;1.73;1.63;;;;;;;;;;5015759;28;20313;-81
2022/07/19 02:57:31;;;;;;;1.48;1.38;;;;;;;;;;5015595;28;20644;-82
2022/07/19 02:59:59;;;;;;;1.17;1.17;;;;;;;;;;5015777;28;20235;-83
2022/07/19 03:02:26;;;;;;;1.42;1.27;;;;;;;;;;5015014;28;20679;-82
2022/07/19 03:04:55;;;;;;;1.60;1.50;;;;;;;;;;5015555;28;20230;-82
2022/07/19 03:07:23;;;;;;;2.38;1.95;;;;;;;;;;5015036;28;20704;-82
2022/07/19 03:09:50;;;;;;;1.48;1.38;;;;;;;;;;5015462;28;20672;-81
2022/07/19 03:12:17;;;;;;;1.55;1.45;;;;;;;;;;5015269;28;20613;-82
2022/07/19 03:14:45;;;;;;;1.40;1.30;;;;;;;;;;5015009;28;20749;-82
2022/07/19 03:17:12;;;;;;;1.52;1.27;;;;;;;;;;5015597;28;20219;-82
2022/07/19 03:19:40;;;;;;;1.77;1.67;;;;;;;;;;5014727;28;20249;-82
2022/07/19 03:22:09;;;;;;;1.98;1.88;;;;;;;;;;5015255;28;20238;-81
2022/07/19 03:24:37;;;;;;;1.20;1.20;;;;;;;;;;5014947;28;20258;-82
2022/07/19 03:27:04;;;;;;;1.40;1.30;;;;;;;;;;5014913;28;20310;-82
2022/07/19 03:29:32;;;;;;;1.15;1.10;;;;;;;;;;5015440;28;20237;-82
2022/07/19 03:31:59;;;;;;;1.20;1.08;;;;;;;;;;5015261;28;20810;-82
2022/07/19 03:34:28;;;;;;;1.25;1.17;;;;;;;;;;5015615;28;20273;-82
2022/07/19 03:36:56;;;;;;;1.50;1.40;;;;;;;;;;5015123;28;20198;-81
2022/07/19 03:39:25;;;;;;;1.95;1.50;;;;;;;;;;5015644;28;20237;-80
2022/07/19 03:41:53;;;;;;;1.30;1.20;;;;;;;;;;5015479;28;20263;-82
2022/07/19 03:44:20;;;;;;;1.50;1.27;;;;;;;;;;5015356;28;20254;-80
2022/07/19 03:46:48;;;;;;;1.20;1.10;;;;;;;;;;5014980;28;20251;-82
2022/07/19 03:49:15;;;;;;;1.00;1.00;;;;;;;;;;5014415;28;20578;-82
2022/07/19 03:51:43;;;;;;;0.95;0.95;;;;;;;;;;5015761;28;20634;-82
2022/07/19 03:54:10;;;;;;;1.10;1.00;;;;;;;;;;5014254;28;20261;-81
2022/07/19 03:56:39;;;;;;;1.08;1.08;;;;;;;;;;5014180;28;20285;-82
2022/07/19 03:59:06;;;;;;;1.30;1.20;;;;;;;;;;5014106;28;20285;-82
2022/07/19 04:01:34;;;;;;;1.50;1.40;;;;;;;;;;5014408;28;20692;-82
2022/07/19 04:04:02;;;;;;;1.05;1.05;;;;;;;;;;5013618;28;20669;-82
2022/07/19 04:06:29;;;;;;;1.35;1.25;;;;;;;;;;5014269;28;20298;-82
2022/07/19 04:08:57;;;;;;;1.58;1.48;;;;;;;;;;5014240;28;20309;-83
2022/07/19 04:11:24;;;;;;;1.77;1.63;;;;;;;;;;5014452;28;20298;-83
2022/07/19 04:13:53;;;;;;;1.13;1.13;;;;;;;;;;5014524;28;20590;-81
2022/07/19 04:16:21;;;;;;;1.23;1.20;;;;;;;;;;5015163;28;20245;-83
2022/07/19 04:18:48;;;;;;;1.25;1.23;;;;;;;;;;5017822;28;20287;-82
2022/07/19 04:21:16;;;;;;;1.70;1.60;;;;;;;;;;5018346;28;20297;-82
2022/07/19 04:23:43;;;;;;;0.90;0.90;;;;;;;;;;5018195;28;20229;-82
2022/07/19 04:26:11;;;;;;;1.52;1.42;;;;;;;;;;5018701;28;20290;-83
2022/07/19 04:28:38;;;;;;;1.13;1.13;;;;;;;;;;5018131;28;20314;-82
2022/07/19 04:31:07;;;;;;;1.45;1.35;;;;;;;;;;5018549;28;20728;-82
2022/07/19 04:33:35;;;;;;;1.00;1.00;;;;;;;;;;5018709;28;20893;-82
2022/07/19 04:36:03;;;;;;;1.20;1.00;;;;;;;;;;5018723;28;20293;-82
2022/07/19 04:38:30;;;;;;;1.25;1.10;;;;;;;;;;5017763;28;20708;-81
2022/07/19 04:40:58;;;;;;;1.38;1.27;;;;;;;;;;5018872;28;20290;-82
2022/07/19 04:43:25;;;;;;;1.20;1.20;;;;;;;;;;5018254;28;20306;-82
2022/07/19 04:45:53;;;;;;;1.23;1.20;;;;;;;;;;5017705;28;20293;-82
2022/07/19 04:48:22;;;;;;;1.60;1.50;;;;;;;;;;5017262;28;20265;-82
2022/07/19 04:50:50;;;;;;;2.03;1.40;;;;;;;;;;5018346;28;20679;-79
2022/07/19 04:53:17;;;;;;;1.55;1.45;;;;;;;;;;5017995;28;20286;-82
2022/07/19 04:55:45;;;;;;;1.55;1.45;;;;;;;;;;5017838;28;20235;-81
2022/07/19 04:58:12;;;;;;;2.17;1.60;;;;;;;;;;5017697;28;20263;-81
2022/07/19 05:00:40;;;;;;;2.65;2.38;;;;;;;;;;5017431;28;20270;-83
2022/07/19 05:03:07;;;;;;;2.15;1.95;;;;;;;;;;5017206;28;20655;-82
2022/07/19 05:05:36;;;;;;;1.80;1.70;;;;;;;;;;5017152;28;20203;-82
2022/07/19 05:08:04;;;;;;;2.35;2.10;;;;;;;;;;5017803;28;20740;-81
2022/07/19 05:10:31;;;;;;;2.33;2.13;;;;;;;;;;5017532;28;20205;-82
2022/07/19 05:12:59;;;;;;;2.85;2.30;;;;;;;;;;5017386;28;20290;-81
2022/07/19 05:15:27;;;;;;;2.97;2.35;;;;;;;;;;5017999;28;20319;-82
2022/07/19 05:17:54;;;;;;;2.42;2.17;;;;;;;;;;5017545;28;20281;-81
2022/07/19 05:20:22;;;;;;;2.20;1.95;;;;;;;;;;5017647;28;20293;-82
2022/07/19 05:22:51;;;;;;;2.13;2.03;;;;;;;;;;5017649;28;20290;-82
2022/07/19 05:25:18;;;;;;;1.52;1.42;;;;;;;;;;5017082;28;20241;-81
2022/07/19 05:27:46;;;;;;;3.13;2.15;;;;;;;;;;5016969;28;20226;-81
2022/07/19 05:30:14;;;;;;;2.35;2.15;;;;;;;;;;5016136;28;20298;-81
2022/07/19 05:32:41;;;;;;;2.03;1.92;;;;;;;;;;5017385;28;20239;-82
2022/07/19 05:35:10;;;;;;;4.20;1.88;;;;;;;;;;5017450;28;20302;-82
2022/07/19 05:37:37;;;;;;;2.67;2.42;;;;;;;;;;5017259;28;20546;-82
2022/07/19 05:40:08;;;;;;;2.00;1.90;;;;;;;;;;5016644;28;20286;-82
2022/07/19 05:42:36;;;;;;;2.00;1.80;;;;;;;;;;5017396;28;20265;-82
2022/07/19 05:45:04;;;;;;;1.95;1.85;;;;;;;;;;5016772;28;20699;-81
2022/07/19 05:47:31;;;;;;;2.70;2.13;;;;;;;;;;5017241;28;20714;-80
2022/07/19 05:49:59;;;;;;;2.70;2.50;;;;;;;;;;5017877;28;20663;-81
2022/07/19 05:52:26;;;;;;;2.10;1.95;;;;;;;;;;5017485;28;20207;-82
2022/07/19 05:54:54;;;;;;;2.05;1.85;;;;;;;;;;5017314;28;20230;-81
2022/07/19 05:57:23;;;;;;;2.20;2.00;;;;;;;;;;5016855;28;20214;-81
2022/07/19 05:59:50;;;;;;;2.30;2.10;;;;;;;;;;5031597;28;20297;-81
2022/07/19 06:02:18;;;;;;;3.03;2.47;;;;;;;;;;5035940;28;20292;-82
2022/07/19 06:04:45;;;;;;;3.88;2.20;;;;;;;;;;5037398;28;20309;-80
2022/07/19 06:07:13;;;;;;;3.50;2.05;;;;;;;;;;5035768;28;20211;-81
2022/07/19 06:09:40;;;;;;;2.78;2.40;;;;;;;;;;5034985;28;20317;-81
2022/07/19 06:12:08;;;;;;;2.90;2.70;;;;;;;;;;5035676;28;20297;-81
2022/07/19 06:14:37;;;;;;;1.80;1.70;;;;;;;;;;5020562;28;20225;-81
2022/07/19 06:17:04;;;;;;;2.20;1.88;;;;;;;;;;5006806;28;20697;-81
2022/07/19 06:19:32;;;;;;;2.22;2.05;;;;;;;;;;4996327;28;20636;-81
2022/07/19 06:21:59;;;;;;;1.98;1.80;;;;;;;;;;4996334;28;20299;-82
2022/07/19 06:24:27;;;;;;;2.92;2.25;;;;;;;;;;4996405;28;20315;-82
2022/07/19 06:26:54;;;;;;;2.83;1.80;;;;;;;;;;4996281;28;20290;-81
2022/07/19 06:29:22;;;;;;;2.50;2.13;;;;;;;;;;5011800;28;20258;-80
2022/07/19 06:31:51;;;;;;;2.00;1.80;;;;;;;;;;5015475;28;20647;-80
2022/07/19 06:34:18;;;;;;;1.80;1.70;;;;;;;;;;5015570;28;20310;-80
2022/07/19 06:36:46;;;;;;;2.05;1.95;;;;;;;;;;5014917;28;20289;-81
2022/07/19 06:39:13;;;;;;;3.35;2.13;;;;;;;;;;5015023;28;20286;-81
2022/07/19 06:41:41;;;;;;;3.55;2.63;;;;;;;;;;5015216;28;20293;-82
2022/07/19 06:44:08;;;;;;;2.17;1.98;;;;;;;;;;5015600;28;20767;-81
2022/07/19 06:46:36;;;;;;;3.38;2.63;;;;;;;;;;5015120;28;20290;-82
2022/07/19 06:49:04;;;;;;;3.60;2.95;;;;;;;;;;5015198;28;20767;-82
2022/07/19 06:51:32;;;;;;;2.60;2.30;;;;;;;;;;5015482;28;20748;-81
2022/07/19 06:53:59;;;;;;;2.35;2.15;;;;;;;;;;5015231;28;20696;-81
2022/07/19 06:56:27;;;;;;;2.92;2.63;;;;;;;;;;5015385;28;20266;-81
2022/07/19 06:58:54;;;;;;;2.03;1.77;;;;;;;;;;5015080;28;20199;-80
2022/07/19 07:01:22;;;;;;;4.80;2.05;;;;;;;;;;5015384;28;20286;-82
2022/07/19 07:03:49;;;;;;;2.10;1.90;;;;;;;;;;5015302;28;20657;-81
2022/07/19 07:06:18;;;;;;;2.60;2.03;;;;;;;;;;5015041;28;20302;-81
2022/07/19 07:08:46;;;;;;;2.70;2.50;;;;;;;;;;5016217;28;20290;-81
2022/07/19 07:11:13;;;;;;;2.05;1.90;;;;;;;;;;5016726;28;20668;-81
2022/07/19 07:13:41;;;;;;;2.38;2.17;;;;;;;;;;5016775;28;20314;-81
2022/07/19 07:16:09;;;;;;;5.72;2.92;;;;;;;;;;5017573;28;20207;-81
2022/07/19 07:18:37;;;;;;;2.78;2.58;;;;;;;;;;5016895;28;20294;-81
2022/07/19 07:21:11;;;;;;;2.55;2.30;;;;;;;;;;5016789;28;20230;-81
2022/07/19 07:23:40;;;;;;;2.83;2.47;;;;;;;;;;5016298;28;20709;-80
2022/07/19 07:26:07;;;;;;;2.90;2.70;;;;;;;;;;5015807;28;20199;-80
2022/07/19 07:28:35;;;;;;;3.03;2.03;;;;;;;;;;5015530;28;20289;-81
2022/07/19 07:31:03;;;;;;;2.58;2.38;;;;;;;;;;5015578;28;20222;-82
2022/07/19 07:33:30;;;;;;;2.65;2.30;;;;;;;;;;5016847;28;20338;-81
2022/07/19 07:35:58;;;;;;;19.38;2.75;;;;;;;;;;5016042;28;20290;-81
2022/07/19 07:38:25;;;;;;;2.55;2.35;;;;;;;;;;5016292;28;20680;-80
2022/07/19 07:40:54;;;;;;;2.33;2.13;;;;;;;;;;5016349;28;20216;-82
2022/07/19 07:43:22;;;;;;;2.50;2.30;;;;;;;;;;5016357;28;20249;-81
2022/07/19 07:45:50;;;;;;;2.10;1.90;;;;;;;;;;5016284;28;20241;-80
2022/07/19 07:48:18;;;;;;;3.28;2.47;;;;;;;;;;5016081;28;20209;-81
2022/07/19 07:50:45;;;;;;;2.90;2.70;;;;;;;;;;5015968;28;20317;-82
2022/07/19 07:53:13;;;;;;;1.73;1.63;;;;;;;;;;5015515;28;20203;-81
2022/07/19 07:55:40;;;;;;;4.03;2.30;;;;;;;;;;5015942;28;20210;-81
2022/07/19 07:58:10;;;;;;;3.35;2.60;;;;;;;;;;5016820;28;20238;-82
2022/07/19 08:00:39;;;;;;;4.40;2.63;;;;;;;;;;5016284;28;20571;-82
2022/07/19 08:03:08;;;;;;;2.30;2.20;;;;;;;;;;5016129;28;20293;-80
2022/07/19 08:05:35;;;;;;;2.17;2.00;;;;;;;;;;5017286;28;20298;-82
2022/07/19 08:08:04;;;;;;;2.28;2.08;;;;;;;;;;5016372;28;20205;-82
2022/07/19 08:10:35;;;;;;;2.05;1.70;;;;;;;;;;5015955;28;20233;-82
2022/07/19 08:13:02;;;;;;;2.70;2.20;;;;;;;;;;5016508;28;20609;-82
2022/07/19 08:15:32;;;;;;;2.72;2.53;;;;;;;;;;5016093;28;20236;-82
2022/07/19 08:17:59;;;;;;;2.05;1.95;;;;;;;;;;5016487;28;20234;-80
2022/07/19 08:20:27;;;;;;;2.08;1.88;;;;;;;;;;5016546;28;20634;-82
2022/07/19 08:22:54;;;;;;;3.28;2.97;;;;;;;;;;5016751;28;20344;-83
2022/07/19 08:25:22;;;;;;;2.60;2.40;;;;;;;;;;5016091;28;20254;-80
2022/07/19 08:27:50;;;;;;;3.25;2.35;;;;;;;;;;5016000;28;20203;-82
2022/07/19 08:30:18;;;;;;;4.50;2.67;;;;;;;;;;5016852;28;20228;-81
2022/07/19 08:32:47;;;;;;;2.20;2.10;;;;;;;;;;5016440;28;20560;-81
2022/07/19 08:35:14;;;;;;;2.42;2.22;;;;;;;;;;5015801;28;20249;-81
2022/07/19 08:37:42;;;;;;;2.42;2.22;;;;;;;;;;5016139;28;20253;-82
2022/07/19 08:40:11;;;;;;;2.50;2.30;;;;;;;;;;5016065;28;20290;-80
2022/07/19 08:42:39;;;;;;;2.30;2.10;;;;;;;;;;5015987;28;20202;-82
2022/07/19 08:45:09;;;;;;;2.80;2.58;;;;;;;;;;5016403;28;20219;-82
2022/07/19 08:47:38;;;;;;;2.40;2.20;;;;;;;;;;5016654;28;20694;-81
2022/07/19 08:50:11;;;;;;;2.42;2.10;;;;;;;;;;5015857;28;20677;-82
2022/07/19 08:52:39;;;;;;;2.47;2.28;;;;;;;;;;5015592;28;20205;-82
2022/07/19 08:55:08;;;;;;;2.42;2.25;;;;;;;;;;5015161;28;20314;-83
2022/07/19 09:00:21;;;;;;;3.67;2.05;;;;;;;;;;5016237;28;20209;-83
2022/07/19 09:02:56;;;;;;;2.58;2.38;;;;;;;;;;5016451;28;20237;-82
2022/07/19 09:05:25;;;;;;;2.50;2.30;;;;;;;;;;5018426;28;20758;-82
2022/07/19 09:08:11;;;;;;;3.17;2.03;;;;;;;;;;5019062;28;20206;-83
2022/07/19 09:10:41;;;;;;;2.45;2.25;;;;;;;;;;5019688;28;20238;-82
2022/07/19 09:13:12;;;;;;;2.00;1.90;;;;;;;;;;5019971;28;20629;-82
2022/07/19 09:15:47;;;;;;;1.75;1.65;;;;;;;;;;5019479;28;20603;-83
2022/07/19 09:18:18;;;;;;;2.28;2.08;;;;;;;;;;5019209;28;20213;-83
2022/07/19 09:20:48;;;;;;;2.65;2.40;;;;;;;;;;5019027;28;20218;-81
2022/07/19 09:23:17;;;;;;;2.28;2.08;;;;;;;;;;5018398;28;20604;-82
2022/07/19 09:25:46;;;;;;;5.57;2.33;;;;;;;;;;5017065;28;20290;-82
2022/07/19 09:28:14;;;;;;;2.20;2.10;;;;;;;;;;5017220;28;20262;-83
2022/07/19 09:30:43;;;;;;;2.50;1.90;;;;;;;;;;5017728;28;20636;-82
2022/07/19 09:33:14;;;;;;;1.83;1.73;;;;;;;;;;5033684;22;20312;-81
2022/07/19 09:35:44;;;;;;;2.22;2.13;;;;;;;;;;5046611;28;20704;-80
2022/07/19 09:38:25;;;;;;;2.38;1.92;;;;;;;;;;5055254;28;20288;-81
2022/07/19 09:40:56;;;;;;;2.03;1.92;;;;;;;;;;5035988;28;20281;-80
2022/07/19 09:43:25;;;;;;;2.63;1.75;;;;;;;;;;5035149;28;20201;-80
2022/07/19 09:45:53;;;;;;;1.60;1.50;;;;;;;;;;5054462;28;20752;-80
2022/07/19 09:48:21;;;;;;;2.38;2.17;;;;;;;;;;5049934;28;20205;-81
2022/07/19 09:50:49;;;;;;;2.10;2.00;;;;;;;;;;5054342;28;20320;-81
2022/07/19 09:53:17;;;;;;;2.10;1.90;;;;;;;;;;5056910;23;20225;-82
2022/07/19 09:55:49;;;;;;;2.05;1.95;;;;;;;;;;5035171;28;20209;-83
2022/07/19 09:58:17;;;;;;;2.00;1.90;;;;;;;;;;5035247;28;20198;-84
2022/07/19 10:00:45;;;;;;;2.40;1.90;;;;;;;;;;5035771;28;20679;-84
2022/07/19 10:03:16;;;;;;;1.80;1.70;;;;;;;;;;5036291;28;20300;-84
2022/07/19 10:05:43;;;;;;;3.03;2.05;;;;;;;;;;5035115;28;20198;-84
2022/07/19 10:08:11;;;;;;;1.95;1.85;;;;;;;;;;5035165;28;20233;-84
2022/07/19 10:10:39;;;;;;;1.90;1.80;;;;;;;;;;5035452;28;20277;-83
2022/07/19 10:13:08;;;;;;;1.88;1.77;;;;;;;;;;5035956;28;20304;-83
2022/07/19 10:15:41;;;;;;;2.70;1.88;;;;;;;;;;5035099;28;20206;-84
2022/07/19 10:18:12;;;;;;;1.58;1.48;;;;;;;;;;5036917;28;20186;-83
2022/07/19 10:20:43;;;;;;;1.98;1.88;;;;;;;;;;5035913;28;20666;-83
2022/07/19 10:23:10;;;;;;;2.10;1.85;;;;;;;;;;5036356;28;20253;-84
2022/07/19 10:25:41;;;;;;;1.88;1.77;;;;;;;;;;5039362;28;20237;-84
2022/07/19 10:28:35;;;;;;;1.80;1.70;;;;;;;;;;5038208;28;20678;-83
2022/07/19 10:31:03;;;;;;;2.00;1.90;;;;;;;;;;5015833;28;20210;-84
2022/07/19 10:33:36;;;;;;;1.90;1.80;;;;;;;;;;5015437;28;20215;-84
2022/07/19 10:36:37;;;;;;;1.92;1.83;;;;;;;;;;5016845;28;20206;-84
2022/07/19 10:39:30;;;;;;;2.53;2.33;;;;;;;;;;5015149;28;20198;-84
2022/07/19 10:42:19;;;;;;;3.40;2.33;;;;;;;;;;5014473;28;20198;-84
2022/07/19 10:45:19;;;;;;;2.20;2.00;;;;;;;;;;5025518;28;20222;-84
2022/07/19 10:48:05;;;;;;;2.08;1.90;;;;;;;;;;5033257;28;20289;-85
2022/07/19 10:50:59;;;;;;;2.58;2.38;;;;;;;;;;5034496;28;20264;-85
2022/07/19 10:54:05;;;;;;;1.83;1.73;;;;;;;;;;5033717;28;20236;-83
2022/07/19 10:56:58;;;;;;;1.70;1.60;;;;;;;;;;5035869;28;20237;-85
2022/07/19 10:59:41;;;;;;;1.98;1.60;;;;;;;;;;5023296;28;20234;-85
2022/07/19 11:02:24;;;;;;;1.67;1.58;;;;;;;;;;5015437;28;20294;-84
2022/07/19 11:04:52;;;;;;;1.33;1.30;;;;;;;;;;5016116;28;20222;-85
2022/07/19 11:07:23;;;;;;;1.98;1.60;;;;;;;;;;5013779;28;20578;-84
2022/07/19 11:09:55;;;;;;;2.75;2.33;;;;;;;;;;5014260;28;20682;-84
2022/07/19 11:12:35;;;;;;;2.47;2.08;;;;;;;;;;5014339;28;20297;-83
2022/07/19 11:15:09;;;;;;;2.10;2.00;;;;;;;;;;5026955;28;20670;-84
2022/07/19 11:17:38;;;;;;;2.50;2.30;;;;;;;;;;5033914;28;20280;-85
2022/07/19 11:20:10;;;;;;;1.60;1.50;;;;;;;;;;5034020;28;20256;-85
2022/07/19 11:22:41;;;;;;;2.25;2.15;;;;;;;;;;5034824;28;20236;-85
2022/07/19 11:25:10;;;;;;;1.98;1.88;;;;;;;;;;5034411;28;20284;-84
2022/07/19 11:27:41;;;;;;;2.00;1.80;;;;;;;;;;5034864;28;20288;-84
2022/07/19 11:30:10;;;;;;;1.63;1.52;;;;;;;;;;5043670;28;20205;-83
2022/07/19 11:32:41;;;;;;;1.73;1.63;;;;;;;;;;5040704;28;20260;-83
2022/07/19 11:35:11;;;;;;;2.10;2.00;;;;;;;;;;5038525;28;20198;-84
2022/07/19 11:37:40;;;;;;;2.05;1.83;;;;;;;;;;5040447;28;20261;-82
2022/07/19 11:40:11;;;;;;;1.73;1.63;;;;;;;;;;5042406;28;20643;-84
2022/07/19 11:42:41;;;;;;;1.50;1.50;;;;;;;;;;5044022;28;20213;-83
2022/07/19 11:45:15;;;;;;;1.80;1.70;;;;;;;;;;5042772;28;20209;-84
2022/07/19 11:47:47;;;;;;;1.30;1.30;;;;;;;;;;5043855;28;20201;-84
2022/07/19 11:50:17;;;;;;;1.70;1.60;;;;;;;;;;5043245;28;20182;-83
2022/07/19 11:52:50;;;;;;;2.40;2.20;;;;;;;;;;5042284;28;20221;-84
2022/07/19 11:55:20;;;;;;;1.88;1.77;;;;;;;;;;5043462;28;20265;-82
2022/07/19 11:57:48;;;;;;;2.33;2.22;;;;;;;;;;5042906;28;20197;-83
2022/07/19 12:00:17;;;;;;;1.70;1.60;;;;;;;;;;5026559;28;20286;-83
2022/07/19 12:03:03;;;;;;;2.00;1.90;;;;;;;;;;5023800;28;20285;-84
2022/07/19 12:05:32;;;;;;;1.85;1.75;;;;;;;;;;5022429;28;20201;-82
2022/07/19 12:08:02;;;;;;;1.80;1.70;;;;;;;;;;5020917;28;20659;-83
2022/07/19 12:10:39;;;;;;;2.38;2.15;;;;;;;;;;5018569;28;20240;-83
2022/07/19 12:13:09;;;;;;;1.90;1.75;;;;;;;;;;5019811;28;20265;-83
2022/07/19 12:15:49;;;;;;;2.25;2.05;;;;;;;;;;5034411;28;20233;-84
2022/07/19 12:18:21;;;;;;;1.60;1.55;;;;;;;;;;5039415;28;20232;-83
2022/07/19 12:21:19;;;;;;;1.80;1.70;;;;;;;;;;5041078;28;20232;-83
2022/07/19 12:24:14;;;;;;;1.58;1.48;;;;;;;;;;5042210;28;20277;-83
2022/07/19 12:26:44;;;;;;;3.17;1.77;;;;;;;;;;5040257;28;20289;-83
2022/07/19 12:29:21;;;;;;;1.48;1.40;;;;;;;;;;5038037;28;20201;-83
2022/07/19 12:31:50;;;;;;;2.30;2.15;;;;;;;;;;5039874;28;20190;-84
2022/07/19 12:34:20;;;;;;;2.17;2.08;;;;;;;;;;5041215;28;20253;-84
2022/07/19 12:36:48;;;;;;;1.42;1.33;;;;;;;;;;5041300;28;20273;-84
2022/07/19 12:39:27;;;;;;;1.83;1.70;;;;;;;;;;5044353;28;20237;-84
2022/07/19 12:42:01;;;;;;;1.80;1.70;;;;;;;;;;5044166;28;20616;-83
2022/07/19 12:44:29;;;;;;;1.83;1.73;;;;;;;;;;5043448;28;20293;-83
2022/07/19 12:46:57;;;;;;;1.75;1.65;;;;;;;;;;5044380;28;20252;-83
2022/07/19 12:49:26;;;;;;;1.40;1.40;;;;;;;;;;5044761;28;20201;-83
2022/07/19 12:51:54;;;;;;;1.70;1.63;;;;;;;;;;5043864;28;20202;-84
2022/07/19 12:54:21;;;;;;;2.75;2.10;;;;;;;;;;5044675;28;20249;-83
2022/07/19 12:56:49;;;;;;;2.78;1.77;;;;;;;;;;5044964;28;20233;-83
2022/07/19 13:02:01;;;;;;;2.78;2.15;;;;;;;;;;5044654;28;20204;-83
2022/07/19 13:04:30;;;;;;;2.08;1.98;;;;;;;;;;5044282;28;20213;-83
2022/07/19 13:06:58;;;;;;;2.35;2.15;;;;;;;;;;5041701;28;20233;-84
2022/07/19 13:09:25;;;;;;;2.33;2.15;;;;;;;;;;5042392;28;20197;-83
2022/07/19 13:11:53;;;;;;;2.70;2.35;;;;;;;;;;5040330;28;20205;-83
2022/07/19 13:14:20;;;;;;;2.63;2.22;;;;;;;;;;5041067;28;20262;-83
2022/07/19 13:16:48;;;;;;;2.45;2.25;;;;;;;;;;5040892;28;20225;-83
2022/07/19 13:19:16;;;;;;;1.90;1.80;;;;;;;;;;5041962;28;20240;-83
2022/07/19 13:21:45;;;;;;;1.90;1.80;;;;;;;;;;5042678;28;20194;-83
2022/07/19 13:24:12;;;;;;;2.13;2.03;;;;;;;;;;5041572;28;20300;-83
2022/07/19 13:26:40;;;;;;;2.28;2.08;;;;;;;;;;5041390;28;20294;-83
2022/07/19 13:29:08;;;;;;;1.65;1.55;;;;;;;;;;5045120;28;20202;-83
2022/07/19 13:31:35;;;;;;;1.85;1.75;;;;;;;;;;5045859;28;20289;-83
2022/07/19 13:34:03;;;;;;;2.08;1.98;;;;;;;;;;5042693;28;20773;-83
2022/07/19 13:36:31;;;;;;;1.77;1.67;;;;;;;;;;5044031;28;20244;-83
2022/07/19 13:39:00;;;;;;;2.53;2.00;;;;;;;;;;5043044;28;20232;-83
2022/07/19 13:41:27;;;;;;;2.55;2.38;;;;;;;;;;5040618;28;20234;-83
2022/07/19 13:43:55;;;;;;;2.47;2.28;;;;;;;;;;5041477;28;20260;-82
2022/07/19 13:46:22;;;;;;;2.30;2.20;;;;;;;;;;5039745;28;20722;-83
2022/07/19 13:48:50;;;;;;;2.25;2.15;;;;;;;;;;5042074;28;20246;-83
2022/07/19 13:51:18;;;;;;;2.00;1.90;;;;;;;;;;5043320;28;20205;-82
2022/07/19 13:53:47;;;;;;;2.22;2.03;;;;;;;;;;5043141;28;20261;-83
2022/07/19 13:56:16;;;;;;;2.85;2.53;;;;;;;;;;5041493;28;20202;-84
2022/07/19 13:58:44;;;;;;;1.92;1.83;;;;;;;;;;5043767;28;20218;-83
2022/07/19 14:01:12;;;;;;;2.38;2.28;;;;;;;;;;5043022;28;20284;-83
2022/07/19 14:03:40;;;;;;;1.90;1.80;;;;;;;;;;5042076;28;20224;-83
2022/07/19 14:06:08;;;;;;;2.03;1.92;;;;;;;;;;5043233;28;20229;-83
2022/07/19 14:08:35;;;;;;;1.92;1.83;;;;;;;;;;5042445;28;20241;-83
2022/07/19 14:11:03;;;;;;;1.60;1.50;;;;;;;;;;5044368;28;20212;-82
2022/07/19 14:13:33;;;;;;;1.80;1.70;;;;;;;;;;5043935;28;20222;-83
2022/07/19 14:16:02;;;;;;;1.60;1.50;;;;;;;;;;5043115;28;20206;-82
2022/07/19 14:18:31;;;;;;;1.67;1.58;;;;;;;;;;5041259;28;20503;-83
2022/07/19 14:20:58;;;;;;;2.38;1.75;;;;;;;;;;5042499;28;20194;-82
2022/07/19 14:23:26;;;;;;;2.08;1.98;;;;;;;;;;5043077;28;20249;-82
2022/07/19 14:25:54;;;;;;;1.80;1.70;;;;;;;;;;5044559;28;20226;-82
2022/07/19 14:28:21;;;;;;;1.70;1.60;;;;;;;;;;5042170;28;20270;-82
2022/07/19 14:30:50;;;;;;;1.90;1.80;;;;;;;;;;5023985;28;20241;-83
2022/07/19 14:33:18;;;;;;;1.95;1.85;;;;;;;;;;5024118;28;20253;-83
2022/07/19 14:35:45;;;;;;;2.03;1.92;;;;;;;;;;5022742;28;20649;-82
2022/07/19 14:38:13;;;;;;;1.42;1.40;;;;;;;;;;5023657;28;20199;-83
2022/07/19 14:40:41;;;;;;;1.60;1.50;;;;;;;;;;5025360;28;20210;-83
2022/07/19 14:43:09;;;;;;;1.92;1.83;;;;;;;;;;5025548;28;20222;-83
2022/07/19 14:45:37;;;;;;;1.95;1.85;;;;;;;;;;5042441;28;20632;-82
2022/07/19 14:48:07;;;;;;;1.52;1.42;;;;;;;;;;5044258;28;20194;-83
2022/07/19 14:50:35;;;;;;;1.40;1.30;;;;;;;;;;5044598;28;20198;-82
2022/07/19 14:53:03;;;;;;;1.42;1.38;;;;;;;;;;5043472;28;20253;-83
2022/07/19 14:55:30;;;;;;;1.60;1.50;;;;;;;;;;5042351;28;20260;-83
2022/07/19 14:57:59;;;;;;;1.60;1.50;;;;;;;;;;5043019;28;20225;-82
2022/07/19 15:00:26;;;;;;;1.55;1.45;;;;;;;;;;5044028;28;20312;-83
2022/07/19 15:02:54;;;;;;;1.42;1.33;;;;;;;;;;5041967;28;20237;-83